createdAt,value
2022-08-02T00:00:56.333Z,4.90
2022-08-02T00:03:24.689Z,6.15
2022-08-02T00:05:52.946Z,6.05
2022-08-02T00:08:20.976Z,6.30
2022-08-02T00:10:47.548Z,6.77
2022-08-02T00:13:14.385Z,8.68
2022-08-02T00:15:40.991Z,7.35
2022-08-02T00:18:07.591Z,7.90
2022-08-02T00:20:34.228Z,5.63
2022-08-02T00:23:00.862Z,5.97
2022-08-02T00:25:27.453Z,8.60
2022-08-02T00:27:53.991Z,4.88
2022-08-02T00:30:20.532Z,6.20
2022-08-02T00:32:47.088Z,6.85
2022-08-02T00:35:13.624Z,6.90
2022-08-02T00:37:41.711Z,6.13
2022-08-02T00:40:10.083Z,8.15
2022-08-02T00:42:36.852Z,4.10
2022-08-02T00:45:03.765Z,6.40
2022-08-02T00:47:30.550Z,6.67
2022-08-02T00:49:57.399Z,6.32
2022-08-02T00:52:24.656Z,5.13
2022-08-02T00:54:51.325Z,6.72
2022-08-02T00:57:17.899Z,6.88
2022-08-02T00:59:44.554Z,8.17
2022-08-02T01:02:11.629Z,6.05
2022-08-02T01:04:38.533Z,4.28
2022-08-02T01:07:11.904Z,6.35
2022-08-02T01:09:42.016Z,6.10
2022-08-02T01:12:09.267Z,4.50
2022-08-02T01:14:36.580Z,6.55
2022-08-02T01:17:08.763Z,5.55
2022-08-02T01:19:49.309Z,7.10
2022-08-02T01:23:00.086Z,8.20
2022-08-02T01:25:43.277Z,7.90
2022-08-02T01:28:34.733Z,6.85
2022-08-02T01:31:19.942Z,5.40
2022-08-02T01:34:03.110Z,6.82
2022-08-02T01:36:40.304Z,8.18
2022-08-02T01:39:11.543Z,7.27
2022-08-02T01:41:58.036Z,10.20
2022-08-02T01:44:28.165Z,6.15
2022-08-02T01:47:00.229Z,6.15
2022-08-02T01:49:30.009Z,9.15
2022-08-02T01:52:17.103Z,12.63
2022-08-02T01:54:45.840Z,8.40
2022-08-02T01:57:14.536Z,9.23
2022-08-02T01:59:43.982Z,7.25
2022-08-02T02:02:12.757Z,7.13
2022-08-02T02:04:40.759Z,9.00
2022-08-02T02:07:08.541Z,7.90
2022-08-02T02:09:50.211Z,7.18
2022-08-02T02:12:18.563Z,9.27
2022-08-02T02:14:51.887Z,8.27
2022-08-02T02:17:52.770Z,7.90
2022-08-02T02:20:13.092Z,9.67
2022-08-02T02:22:39.813Z,12.05
2022-08-02T02:25:08.600Z,8.98
2022-08-02T02:27:44.331Z,10.73
2022-08-02T02:30:12.350Z,9.27
2022-08-02T02:32:41.003Z,9.23
2022-08-02T02:35:10.758Z,10.38
2022-08-02T02:37:38.814Z,12.52
2022-08-02T02:40:07.002Z,11.13
2022-08-02T02:42:35.563Z,15.43
2022-08-02T02:45:04.493Z,14.00
2022-08-02T02:47:41.147Z,16.58
2022-08-02T02:50:10.648Z,15.23
2022-08-02T02:52:39.775Z,15.38
2022-08-02T02:55:07.873Z,15.05
2022-08-02T02:57:36.660Z,21.90
2022-08-02T03:00:14.589Z,17.05
2022-08-02T03:02:43.401Z,21.25
2022-08-02T03:05:12.023Z,18.65
2022-08-02T03:07:39.409Z,26.50
2022-08-02T03:10:07.361Z,26.97
2022-08-02T03:12:35.173Z,21.33
2022-08-02T03:15:05.089Z,20.38
2022-08-02T03:17:41.601Z,21.83
2022-08-02T03:20:10.760Z,20.65
2022-08-02T03:22:37.360Z,26.40
2022-08-02T03:25:04.210Z,30.38
2022-08-02T03:27:30.765Z,28.55
2022-08-02T03:29:57.280Z,33.08
2022-08-02T03:32:24.440Z,36.70
2022-08-02T03:34:51.073Z,39.30
2022-08-02T03:37:18.007Z,35.67
2022-08-02T03:39:52.798Z,31.15
2022-08-02T03:42:21.432Z,32.47
2022-08-02T03:44:49.866Z,32.38
2022-08-02T03:47:18.519Z,35.47
2022-08-02T03:49:46.213Z,38.35
2022-08-02T03:52:13.724Z,30.15
2022-08-02T03:54:45.375Z,34.17
2022-08-02T03:57:12.192Z,31.48
2022-08-02T03:59:46.441Z,31.77
2022-08-02T04:02:14.316Z,36.55
2022-08-02T04:04:41.089Z,34.15
2022-08-02T04:07:07.852Z,32.67
2022-08-02T04:09:34.595Z,31.75
2022-08-02T04:12:01.204Z,29.97
2022-08-02T04:14:28.274Z,30.48
2022-08-02T04:17:02.013Z,33.53
2022-08-02T04:19:37.947Z,31.25
2022-08-02T04:22:06.524Z,36.80
2022-08-02T04:24:44.872Z,32.20
2022-08-02T04:27:49.217Z,33.75
2022-08-02T04:30:00.862Z,33.63
2022-08-02T04:32:28.279Z,31.00
2022-08-02T04:35:18.180Z,39.00
2022-08-02T04:38:05.505Z,36.90
2022-08-02T04:40:29.424Z,37.45
2022-08-02T04:42:56.027Z,31.75
2022-08-02T04:45:23.450Z,38.42
2022-08-02T04:48:02.191Z,37.70
2022-08-02T04:50:30.815Z,32.33
2022-08-02T04:52:57.376Z,34.90
2022-08-02T04:55:28.459Z,33.13
2022-08-02T04:57:55.626Z,34.95
2022-08-02T05:00:22.580Z,35.35
2022-08-02T05:02:49.566Z,35.03
2022-08-02T05:05:16.802Z,37.33
2022-08-02T05:07:44.818Z,33.97
2022-08-02T05:10:11.444Z,35.95
2022-08-02T05:12:39.175Z,35.75
2022-08-02T05:15:06.521Z,31.03
2022-08-02T05:17:35.850Z,29.42
2022-08-02T05:20:02.820Z,31.13
2022-08-02T05:22:29.378Z,31.60
2022-08-02T05:24:55.960Z,31.40
2022-08-02T05:27:22.602Z,34.10
2022-08-02T05:29:53.789Z,28.65
2022-08-02T05:32:23.785Z,30.10
2022-08-02T05:34:52.297Z,30.33
2022-08-02T05:37:19.137Z,33.35
2022-08-02T05:39:55.487Z,28.67
2022-08-02T05:42:23.779Z,25.27
2022-08-02T05:44:50.662Z,28.00
2022-08-02T05:47:17.348Z,25.48
2022-08-02T05:49:44.259Z,24.83
2022-08-02T05:52:19.233Z,23.73
2022-08-02T05:55:05.641Z,19.35
2022-08-02T05:57:53.750Z,22.27
2022-08-02T06:00:21.873Z,25.02
2022-08-02T06:03:19.446Z,22.10
2022-08-02T06:06:05.858Z,22.60
2022-08-02T06:08:38.493Z,20.13
2022-08-02T06:11:10.837Z,20.17
2022-08-02T06:13:37.901Z,20.05
2022-08-02T06:16:06.199Z,17.63
2022-08-02T06:18:42.324Z,19.00
2022-08-02T06:22:31.968Z,19.75
2022-08-02T06:23:59.542Z,20.27
2022-08-02T06:26:29.747Z,19.25
2022-08-02T06:28:58.254Z,17.25
2022-08-02T06:31:25.334Z,17.47
2022-08-02T06:33:52.105Z,15.60
2022-08-02T06:36:52.251Z,14.57
2022-08-02T06:39:28.603Z,17.17
2022-08-02T06:42:00.208Z,17.27
2022-08-02T06:44:48.121Z,19.77
2022-08-02T06:47:13.978Z,13.55
2022-08-02T06:49:53.012Z,13.13
2022-08-02T06:52:33.421Z,15.10
2022-08-02T06:55:01.978Z,14.40
2022-08-02T06:57:29.877Z,14.47
2022-08-02T06:59:57.093Z,13.60
2022-08-02T07:02:24.153Z,15.93
2022-08-02T07:04:51.065Z,14.15
2022-08-02T07:07:17.954Z,11.68
2022-08-02T07:09:56.525Z,13.83
2022-08-02T07:12:29.219Z,12.68
2022-08-02T07:14:55.785Z,14.27
2022-08-02T07:17:22.390Z,14.48
2022-08-02T07:19:48.925Z,17.40
2022-08-02T07:22:15.926Z,11.23
2022-08-02T07:24:42.772Z,13.63
2022-08-02T07:27:11.700Z,17.73
2022-08-02T07:29:45.142Z,13.60
2022-08-02T07:32:20.829Z,12.98
2022-08-02T07:34:51.346Z,13.00
2022-08-02T07:37:34.997Z,12.30
2022-08-02T07:40:12.455Z,11.95
2022-08-02T07:42:41.125Z,13.00
2022-08-02T07:45:08.267Z,12.02
2022-08-02T07:47:41.158Z,13.73
2022-08-02T07:50:09.970Z,12.80
2022-08-02T07:52:36.724Z,13.57
2022-08-02T07:55:04.583Z,11.93
2022-08-02T07:57:31.138Z,9.65
2022-08-02T07:59:57.694Z,11.37
2022-08-02T08:02:25.152Z,12.95
2022-08-02T08:04:52.885Z,12.43
2022-08-02T08:07:20.340Z,10.35
2022-08-02T08:09:48.210Z,10.20
2022-08-02T08:12:16.671Z,11.00
2022-08-02T08:14:43.919Z,10.18
2022-08-02T08:17:10.834Z,11.18
2022-08-02T08:19:51.472Z,9.70
2022-08-02T08:22:21.742Z,10.13
2022-08-02T08:24:49.097Z,9.70
2022-08-02T08:27:16.854Z,13.35
2022-08-02T08:29:44.255Z,10.27
2022-08-02T08:32:16.183Z,11.02
2022-08-02T08:34:45.938Z,11.20
2022-08-02T08:37:17.650Z,11.37
2022-08-02T08:39:53.712Z,9.95
2022-08-02T08:42:28.269Z,9.32
2022-08-02T08:44:59.502Z,10.55
2022-08-02T08:47:51.328Z,10.55
2022-08-02T08:50:24.828Z,9.70
2022-08-02T08:53:01.715Z,10.27
2022-08-02T08:55:29.806Z,10.00
2022-08-02T08:57:59.249Z,10.13
2022-08-02T09:00:26.645Z,11.13
2022-08-02T09:02:53.839Z,10.67
2022-08-02T09:05:20.493Z,9.75
2022-08-02T09:07:51.795Z,9.90
2022-08-02T09:10:38.305Z,14.13
2022-08-02T09:13:38.839Z,9.40
2022-08-02T09:16:11.775Z,7.37
2022-08-02T09:18:47.616Z,9.15
2022-08-02T09:21:17.027Z,12.45
2022-08-02T09:23:48.606Z,7.20
2022-08-02T09:26:20.930Z,7.85
2022-08-02T09:28:52.845Z,8.27
2022-08-02T09:31:22.650Z,9.27
2022-08-02T09:33:58.105Z,9.15
2022-08-02T09:36:26.663Z,7.30
2022-08-02T09:38:57.870Z,7.05
2022-08-02T09:41:27.404Z,10.17
2022-08-02T09:44:04.659Z,8.07
2022-08-02T09:46:37.716Z,8.35
2022-08-02T09:49:08.354Z,7.50
2022-08-02T09:51:49.842Z,12.20
2022-08-02T09:54:17.697Z,7.17
2022-08-02T09:56:48.320Z,6.18
2022-08-02T09:59:16.931Z,8.48
2022-08-02T10:01:50.581Z,6.75
2022-08-02T10:04:29.954Z,6.57
2022-08-02T10:06:59.770Z,8.43
2022-08-02T10:09:28.928Z,6.13
2022-08-02T10:11:56.009Z,6.45
2022-08-02T10:14:23.941Z,7.20
2022-08-02T10:16:50.738Z,6.40
2022-08-02T10:19:17.328Z,5.47
2022-08-02T10:22:02.678Z,6.45
2022-08-02T10:24:32.156Z,7.40
2022-08-02T10:27:00.075Z,7.10
2022-08-02T10:29:55.326Z,8.43
2022-08-02T10:32:44.108Z,6.50
2022-08-02T10:35:19.606Z,6.07
2022-08-02T10:37:55.447Z,8.45
2022-08-02T10:40:28.684Z,6.78
2022-08-02T10:43:00.912Z,5.53
2022-08-02T10:45:29.874Z,5.93
2022-08-02T10:47:57.257Z,6.00
2022-08-02T10:50:42.265Z,6.68
2022-08-02T10:53:33.918Z,5.97
2022-08-02T10:56:02.896Z,7.85
2022-08-02T10:58:34.238Z,6.73
2022-08-02T11:01:06.143Z,5.78
2022-08-02T11:03:33.635Z,4.85
2022-08-02T11:06:26.007Z,8.05
2022-08-02T11:09:33.503Z,5.70
2022-08-02T11:12:04.438Z,4.87
2022-08-02T11:14:34.058Z,5.18
2022-08-02T11:17:02.753Z,6.88
2022-08-02T11:19:29.537Z,4.32
2022-08-02T11:22:10.261Z,3.78
2022-08-02T11:24:39.036Z,6.00
2022-08-02T11:27:08.273Z,5.32
2022-08-02T11:29:39.854Z,5.63
2022-08-02T11:32:18.222Z,10.32
2022-08-02T11:34:47.811Z,7.45
2022-08-02T11:37:28.221Z,3.77
2022-08-02T11:39:54.850Z,5.65
2022-08-02T11:42:21.602Z,5.70
2022-08-02T11:44:49.281Z,6.35
2022-08-02T11:47:15.932Z,7.07
2022-08-02T11:49:44.654Z,6.07
2022-08-02T11:52:12.121Z,5.72
2022-08-02T11:54:41.128Z,7.80
2022-08-02T11:57:20.782Z,4.90
2022-08-02T11:59:50.527Z,6.00
2022-08-02T12:02:18.846Z,4.20
2022-08-02T12:04:58.359Z,5.68
2022-08-02T12:07:45.763Z,4.85
2022-08-02T12:10:21.698Z,6.20
2022-08-02T12:12:57.068Z,6.05
2022-08-02T12:15:34.992Z,5.23
2022-08-02T12:18:21.929Z,4.80
2022-08-02T12:20:48.669Z,4.75
2022-08-02T12:23:15.267Z,5.03
2022-08-02T12:25:42.574Z,8.27
2022-08-02T12:28:27.451Z,5.53
2022-08-02T12:30:59.277Z,7.28
2022-08-02T12:33:49.396Z,6.63
2022-08-02T12:36:30.099Z,5.95
2022-08-02T12:38:59.339Z,13.10
2022-08-02T12:41:30.974Z,6.63
2022-08-02T12:43:58.841Z,5.10
2022-08-02T12:46:25.619Z,6.25
2022-08-02T12:49:16.474Z,5.90
2022-08-02T12:51:50.845Z,7.28
2022-08-02T12:54:30.946Z,5.20
2022-08-02T12:57:19.092Z,7.43
2022-08-02T12:59:53.548Z,11.00
2022-08-02T13:02:21.504Z,5.22
2022-08-02T13:04:50.141Z,5.90
2022-08-02T13:07:18.499Z,7.27
2022-08-02T13:09:46.951Z,7.25
2022-08-02T13:12:14.036Z,6.78
2022-08-02T13:14:42.655Z,7.80
2022-08-02T13:17:10.598Z,8.73
2022-08-02T13:19:38.495Z,5.53
2022-08-02T13:22:05.912Z,6.82
2022-08-02T13:24:41.024Z,8.20
2022-08-02T13:27:21.159Z,6.20
2022-08-02T13:29:48.994Z,7.95
2022-08-02T13:32:18.394Z,7.03
2022-08-02T13:34:45.074Z,7.25
2022-08-02T13:37:11.927Z,7.53
2022-08-02T13:39:38.704Z,5.75
2022-08-02T13:42:16.012Z,6.43
2022-08-02T13:44:44.005Z,7.63
2022-08-02T13:47:11.463Z,9.50
2022-08-02T13:49:51.179Z,6.55
2022-08-02T13:52:20.044Z,7.88
2022-08-02T13:54:46.616Z,7.03
2022-08-02T13:57:13.176Z,6.93
2022-08-02T13:59:57.457Z,7.95
2022-08-02T14:02:28.594Z,6.57
2022-08-02T14:04:55.926Z,9.13
2022-08-02T14:07:22.842Z,8.10
2022-08-02T14:09:49.485Z,6.83
2022-08-02T14:12:16.729Z,6.93
2022-08-02T14:14:43.678Z,8.27
2022-08-02T14:17:11.628Z,6.97
2022-08-02T14:19:38.249Z,8.65
2022-08-02T14:22:11.194Z,8.93
2022-08-02T14:24:39.766Z,5.78
2022-08-02T14:27:06.676Z,9.43
2022-08-02T14:29:33.360Z,7.78
2022-08-02T14:32:00.021Z,9.13
2022-08-02T14:34:27.241Z,13.17
2022-08-02T14:36:54.305Z,30.33
2022-08-02T14:39:21.407Z,11.95
2022-08-02T14:41:59.277Z,5.78
2022-08-02T14:44:26.991Z,10.80
2022-08-02T14:46:54.005Z,8.47
2022-08-02T14:49:25.733Z,10.27
2022-08-02T14:51:56.930Z,7.47
2022-08-02T14:54:30.726Z,6.25
2022-08-02T14:57:03.373Z,7.15
2022-08-02T14:59:30.777Z,7.27
2022-08-02T15:01:58.103Z,7.18
2022-08-02T15:04:25.274Z,8.95
2022-08-02T15:06:52.158Z,7.60
2022-08-02T15:09:19.414Z,6.65
2022-08-02T15:11:47.434Z,6.20
2022-08-02T15:14:22.329Z,7.32
2022-08-02T15:16:58.175Z,10.93
2022-08-02T15:19:28.703Z,6.28
2022-08-02T15:22:15.765Z,7.22
2022-08-02T15:24:44.471Z,6.40
2022-08-02T15:27:13.679Z,7.93
2022-08-02T15:29:40.933Z,7.03
2022-08-02T15:32:09.093Z,9.55
2022-08-02T15:34:35.826Z,9.63
2022-08-02T15:37:02.846Z,7.53
2022-08-02T15:39:29.919Z,9.93
2022-08-02T15:41:56.886Z,8.90
2022-08-02T15:44:24.845Z,10.68
2022-08-02T15:46:51.788Z,8.48
2022-08-02T15:49:20.432Z,11.87
2022-08-02T15:51:47.274Z,6.95
2022-08-02T15:54:13.864Z,7.43
2022-08-02T15:56:40.482Z,6.45
2022-08-02T15:59:07.247Z,7.50
2022-08-02T16:01:37.214Z,11.00
2022-08-02T16:04:06.662Z,7.28
2022-08-02T16:06:34.238Z,8.77
2022-08-02T16:09:00.860Z,7.93
2022-08-02T16:11:27.532Z,9.10
2022-08-02T16:13:54.856Z,7.73
2022-08-02T16:16:23.850Z,7.93
2022-08-02T16:18:50.796Z,7.10
2022-08-02T16:21:17.716Z,5.28
2022-08-02T16:23:58.997Z,9.90
2022-08-02T16:26:31.145Z,7.77
2022-08-02T16:28:59.000Z,8.40
2022-08-02T16:31:25.719Z,10.00
2022-08-02T16:33:56.235Z,8.68
2022-08-02T16:36:24.908Z,10.50
2022-08-02T16:38:52.535Z,7.90
2022-08-02T16:41:19.257Z,6.88
2022-08-02T16:43:46.057Z,12.30
2022-08-02T16:46:12.971Z,8.95
2022-08-02T16:48:39.757Z,9.88
2022-08-02T16:51:14.047Z,11.33
2022-08-02T16:53:59.852Z,9.40
2022-08-02T16:56:28.967Z,9.38
2022-08-02T16:58:59.867Z,10.43
2022-08-02T17:02:11.884Z,9.38
2022-08-02T17:04:29.580Z,11.25
2022-08-02T17:06:56.386Z,10.65
2022-08-02T17:10:04.632Z,8.35
2022-08-02T17:12:16.104Z,9.33
2022-08-02T17:14:55.587Z,11.40
2022-08-02T17:17:33.646Z,10.07
2022-08-02T17:20:03.131Z,12.93
2022-08-02T17:22:29.769Z,10.77
2022-08-02T17:24:56.635Z,7.20
2022-08-02T17:27:25.992Z,10.68
2022-08-02T17:29:53.389Z,11.52
2022-08-02T17:32:20.315Z,8.73
2022-08-02T17:34:56.623Z,7.05
2022-08-02T17:37:28.533Z,12.17
2022-08-02T17:39:55.514Z,8.18
2022-08-02T17:42:23.389Z,9.88
2022-08-02T17:44:53.967Z,10.20
2022-08-02T17:47:21.660Z,8.23
2022-08-02T17:49:49.056Z,6.07
2022-08-02T17:55:06.399Z,8.80
2022-08-02T17:57:56.229Z,11.15
2022-08-02T18:00:20.257Z,6.72
2022-08-02T18:02:52.759Z,12.27
2022-08-02T18:05:23.634Z,8.73
2022-08-02T18:08:06.217Z,8.23
2022-08-02T18:10:33.950Z,6.28
2022-08-02T18:13:00.657Z,8.85
2022-08-02T18:15:29.352Z,10.17
2022-08-02T18:17:59.009Z,12.82
2022-08-02T18:20:25.526Z,7.78
2022-08-02T18:22:58.373Z,8.63
2022-08-02T18:25:37.566Z,8.65
2022-08-02T18:28:12.385Z,10.70
2022-08-02T18:30:38.999Z,6.47
2022-08-02T18:33:58.019Z,7.68
2022-08-02T18:35:52.615Z,7.80
2022-08-02T18:38:22.318Z,6.78
2022-08-02T18:40:50.765Z,8.23
2022-08-02T18:43:18.504Z,7.55
2022-08-02T18:46:06.725Z,8.02
2022-08-02T18:48:31.864Z,9.75
2022-08-02T18:50:58.500Z,6.20
2022-08-02T18:53:27.943Z,6.90
2022-08-02T18:56:06.922Z,8.43
2022-08-02T18:58:35.143Z,6.43
2022-08-02T19:01:05.066Z,7.78
2022-08-02T19:03:41.313Z,7.32
2022-08-02T19:06:19.752Z,9.63
2022-08-02T19:09:05.586Z,7.20
2022-08-02T19:11:41.437Z,6.43
2022-08-02T19:14:23.984Z,7.68
2022-08-02T19:16:55.271Z,7.38
2022-08-02T19:19:22.265Z,8.97
2022-08-02T19:22:17.910Z,11.32
2022-08-02T19:24:36.697Z,8.93
2022-08-02T19:27:13.361Z,5.57
2022-08-02T19:29:48.512Z,6.13
2022-08-02T19:32:41.922Z,8.93
2022-08-02T19:35:19.940Z,9.63
2022-08-02T19:37:58.904Z,10.25
2022-08-02T19:40:29.109Z,7.57
2022-08-02T19:44:20.879Z,8.50
2022-08-02T19:45:49.931Z,12.13
2022-08-02T19:48:24.063Z,8.68
2022-08-02T19:51:07.921Z,7.68
2022-08-02T19:53:48.525Z,6.67
2022-08-02T19:56:21.210Z,7.63
2022-08-02T19:58:51.392Z,7.00
2022-08-02T20:01:23.484Z,7.30
2022-08-02T20:03:54.148Z,7.78
2022-08-02T20:06:29.322Z,9.83
2022-08-02T20:08:58.944Z,6.43
2022-08-02T20:11:26.134Z,10.70
2022-08-02T20:13:53.554Z,9.13
2022-08-02T20:16:27.129Z,8.60
2022-08-02T20:18:55.103Z,7.70
2022-08-02T20:21:36.288Z,8.35
2022-08-02T20:24:09.311Z,8.82
2022-08-02T20:26:39.684Z,6.55
2022-08-02T20:29:14.066Z,12.80
2022-08-02T20:31:40.709Z,7.90
2022-08-02T20:34:07.385Z,5.35
2022-08-02T20:36:34.138Z,9.13
2022-08-02T20:39:00.689Z,8.13
2022-08-02T20:41:37.261Z,8.95
2022-08-02T20:44:15.778Z,9.67
2022-08-02T20:46:56.425Z,5.72
2022-08-02T20:49:40.811Z,10.70
2022-08-02T20:52:23.052Z,8.27
2022-08-02T20:54:51.056Z,9.00
2022-08-02T20:57:17.620Z,10.90
2022-08-02T20:59:44.224Z,7.18
2022-08-02T21:02:19.271Z,8.93
2022-08-02T21:04:47.015Z,8.52
2022-08-02T21:07:13.579Z,10.27
2022-08-02T21:09:53.575Z,8.43
2022-08-02T21:12:21.867Z,8.32
2022-08-02T21:14:56.621Z,6.93
2022-08-02T21:17:31.692Z,6.93
2022-08-02T21:20:10.380Z,6.93
2022-08-02T21:22:37.376Z,10.43
2022-08-02T21:25:08.946Z,7.70
2022-08-02T21:27:51.606Z,10.45
2022-08-02T21:30:24.343Z,12.18
2022-08-02T21:32:54.612Z,8.60
2022-08-02T21:35:23.057Z,11.07
2022-08-02T21:37:50.674Z,7.32
2022-08-02T21:40:25.149Z,10.05
2022-08-02T21:42:51.883Z,14.23
2022-08-02T21:45:20.115Z,10.75
2022-08-02T21:47:46.990Z,8.30
2022-08-02T21:50:16.412Z,9.20
2022-08-02T21:52:52.333Z,10.40
2022-08-02T21:55:23.976Z,5.45
2022-08-02T21:57:50.801Z,10.82
2022-08-02T22:00:17.537Z,9.90
2022-08-02T22:02:55.246Z,9.00
2022-08-02T22:05:22.104Z,8.95
2022-08-02T22:07:48.779Z,9.40
2022-08-02T22:10:17.432Z,6.88
2022-08-02T22:12:44.961Z,6.70
2022-08-02T22:15:12.170Z,8.73
2022-08-02T22:20:25.342Z,8.70
2022-08-02T22:22:55.926Z,8.20
2022-08-02T22:25:31.288Z,7.70
2022-08-02T22:28:38.085Z,10.15
2022-08-02T22:30:56.854Z,8.93
2022-08-02T22:33:47.144Z,8.18
2022-08-02T22:36:28.235Z,9.68
2022-08-02T22:38:55.256Z,6.00
2022-08-02T22:41:22.683Z,8.90
2022-08-02T22:43:49.797Z,7.68
2022-08-02T22:46:16.985Z,7.85
2022-08-02T22:48:44.303Z,5.47
2022-08-02T22:51:13.570Z,6.03
2022-08-02T22:53:43.393Z,4.93
2022-08-02T22:56:10.772Z,8.30
2022-08-02T22:58:49.322Z,8.02
2022-08-02T22:59:12.257Z,6.95
2022-08-02T23:01:24.558Z,7.65
2022-08-02T23:03:51.204Z,6.10
2022-08-02T23:06:19.237Z,6.25
2022-08-02T23:08:49.865Z,6.32
2022-08-02T23:11:16.536Z,9.38
2022-08-02T23:13:43.056Z,8.43
2022-08-02T23:16:28.263Z,7.30
2022-08-02T23:19:13.213Z,7.97
2022-08-02T23:22:01.801Z,6.40
2022-08-02T23:24:27.832Z,7.80
2022-08-02T23:26:54.473Z,8.77
2022-08-02T23:29:21.095Z,5.17
2022-08-02T23:31:47.631Z,8.50
2022-08-02T23:34:14.290Z,6.70
2022-08-02T23:36:40.877Z,4.70
2022-08-02T23:39:08.077Z,5.85
2022-08-02T23:41:34.739Z,4.07
2022-08-02T23:44:13.601Z,6.78
2022-08-02T23:46:45.968Z,6.43
2022-08-02T23:49:13.628Z,8.15
2022-08-02T23:51:40.255Z,4.70
2022-08-02T23:54:07.258Z,7.57
2022-08-02T23:56:34.215Z,6.80
2022-08-02T23:59:00.747Z,6.72
